Time;durP1;ratioP1;P1;durP2;ratioP2;P2;SDS_P1;SDS_P2;PMS_P1;PMS_P2;Temp;Humidity;BMP_temperature;BMP_pressure;BME280_temperature;BME280_humidity;BME280_pressure;Samples;Min_cycle;Max_cycle;Signal;HPM_P1;HPM_P2
2022/05/14 00:01:28;;;;;;;11.82;3.10;;;22.40;43.80;;;;;;5082201;28;20028;-63
2022/05/14 00:03:54;;;;;;;5.88;2.65;;;22.30;44.10;;;;;;5081398;28;20115;-62
2022/05/14 00:06:22;;;;;;;10.75;2.78;;;22.30;43.30;;;;;;5058160;28;20032;-63
2022/05/14 00:08:48;;;;;;;12.40;3.03;;;22.30;43.60;;;;;;5087449;28;20032;-63
2022/05/14 00:14:03;;;;;;;7.57;2.45;;;22.20;44.00;;;;;;5081471;28;20042;-63
2022/05/14 00:16:29;;;;;;;9.70;2.78;;;22.10;42.20;;;;;;5066363;28;20021;-63
2022/05/14 00:18:55;;;;;;;9.90;2.60;;;21.90;42.30;;;;;;5075542;28;20184;-62
2022/05/14 00:21:22;;;;;;;8.00;2.53;;;22.00;42.60;;;;;;5079987;28;20103;-63
2022/05/14 00:23:47;;;;;;;14.93;2.67;;;22.00;43.00;;;;;;5081912;28;20193;-63
2022/05/14 00:26:14;;;;;;;6.90;2.63;;;22.00;41.40;;;;;;5089169;28;20098;-64
2022/05/14 00:28:40;;;;;;;11.90;2.60;;;22.00;42.70;;;;;;5060002;28;20032;-64
2022/05/14 00:31:24;;;;;;;7.90;2.28;;;21.90;41.80;;;;;;5084755;28;20495;-62
2022/05/14 00:33:50;;;;;;;7.05;2.08;;;21.90;41.40;;;;;;5080772;28;20111;-63
2022/05/14 00:36:15;;;;;;;10.35;2.47;;;21.90;41.80;;;;;;5077822;28;20108;-64
2022/05/14 00:38:41;;;;;;;13.65;2.63;;;21.90;41.40;;;;;;5087376;28;20048;-63
2022/05/14 00:41:08;;;;;;;10.10;2.58;;;21.90;41.40;;;;;;5080031;28;20035;-63
2022/05/14 00:43:46;;;;;;;11.20;2.40;;;21.80;41.70;;;;;;5082946;28;20488;-63
2022/05/14 00:46:20;;;;;;;7.75;2.53;;;21.80;40.80;;;;;;5084119;28;20060;-63
2022/05/14 00:48:48;;;;;;;6.18;2.10;;;21.80;41.10;;;;;;5062461;28;20024;-63
2022/05/14 00:51:17;;;;;;;8.95;2.17;;;21.80;42.20;;;;;;5084443;28;20528;-63
2022/05/14 00:53:51;;;;;;;7.50;1.83;;;21.80;41.90;;;;;;5082893;28;20035;-63
2022/05/14 00:56:20;;;;;;;8.75;2.33;;;21.80;40.90;;;;;;5078670;28;20562;-64
2022/05/14 00:59:16;;;;;;;6.10;2.20;;;21.80;40.50;;;;;;5085054;28;20541;-64
2022/05/14 01:01:42;;;;;;;8.30;3.47;;;21.70;40.40;;;;;;5082630;28;20044;-66
2022/05/14 01:04:09;;;;;;;8.65;2.60;;;21.60;41.50;;;;;;5085565;28;20024;-64
2022/05/14 01:06:37;;;;;;;9.20;2.60;;;21.50;41.10;;;;;;5085522;28;20032;-63
2022/05/14 01:09:04;;;;;;;10.52;2.30;;;21.60;41.40;;;;;;5083728;28;20038;-64
2022/05/14 01:11:33;;;;;;;9.48;2.40;;;21.60;41.80;;;;;;5086311;28;20025;-63
2022/05/14 01:13:59;;;;;;;7.90;2.78;;;21.60;41.80;;;;;;5085763;28;20085;-64
2022/05/14 01:16:24;;;;;;;9.10;2.45;;;21.60;42.00;;;;;;5081351;28;20032;-64
2022/05/14 01:18:50;;;;;;;8.98;2.92;;;21.60;41.80;;;;;;5088196;28;20354;-64
2022/05/14 01:21:24;;;;;;;9.07;2.30;;;21.40;42.30;;;;;;5070488;28;20016;-64
2022/05/14 01:27:16;;;;;;;10.38;2.70;;;21.50;41.40;;;;;;5086904;28;20062;-65
2022/05/14 01:29:42;;;;;;;9.75;2.28;;;21.50;41.30;;;;;;5080333;28;20138;-66
2022/05/14 01:32:08;;;;;;;10.60;2.63;;;21.50;41.00;;;;;;5084225;28;20043;-64
2022/05/14 01:34:35;;;;;;;13.73;2.58;;;21.30;41.20;;;;;;5089063;28;20027;-64
2022/05/14 01:37:02;;;;;;;5.88;2.50;;;21.20;41.00;;;;;;5085699;28;20035;-64
2022/05/14 01:39:28;;;;;;;7.55;2.70;;;21.30;41.30;;;;;;5080007;28;20031;-64
2022/05/14 01:41:54;;;;;;;9.02;2.47;;;21.10;41.00;;;;;;5077445;28;20111;-64
2022/05/14 01:44:21;;;;;;;9.13;2.40;;;21.10;41.80;;;;;;5087213;28;20032;-66
2022/05/14 01:46:47;;;;;;;7.75;2.30;;;21.20;41.10;;;;;;5069532;28;20028;-65
2022/05/14 01:49:13;;;;;;;6.82;2.65;;;21.20;42.30;;;;;;5088255;28;20039;-64
2022/05/14 01:51:38;;;;;;;12.20;2.42;;;21.20;41.40;;;;;;5079662;28;20043;-63
2022/05/14 01:54:04;;;;;;;7.72;2.42;;;21.10;41.80;;;;;;5081840;28;20523;-64
2022/05/14 01:56:30;;;;;;;10.20;2.17;;;21.10;41.50;;;;;;5083142;28;20038;-64
2022/05/14 01:58:56;;;;;;;8.25;2.40;;;21.00;42.00;;;;;;5086755;28;20116;-64
2022/05/14 02:01:28;;;;;;;6.93;2.50;;;20.90;43.00;;;;;;5086155;28;20031;-64
2022/05/14 02:03:57;;;;;;;9.32;2.75;;;20.90;43.20;;;;;;5085852;28;20469;-63
2022/05/14 02:06:24;;;;;;;5.18;2.90;;;20.80;43.60;;;;;;5067453;28;20103;-64
2022/05/14 02:08:50;;;;;;;7.07;2.60;;;20.70;43.80;;;;;;5084998;28;20028;-64
2022/05/14 02:11:16;;;;;;;11.15;2.47;;;20.70;44.40;;;;;;5089498;28;20098;-64
2022/05/14 02:13:43;;;;;;;6.05;2.47;;;20.70;44.10;;;;;;5081110;28;20031;-64
2022/05/14 02:16:09;;;;;;;8.30;2.60;;;20.70;43.70;;;;;;5086188;28;20017;-64
2022/05/14 02:18:36;;;;;;;8.48;2.28;;;20.60;43.90;;;;;;5091917;28;20032;-64
2022/05/14 02:21:03;;;;;;;6.80;1.92;;;20.70;43.30;;;;;;5090139;28;20072;-64
2022/05/14 02:23:29;;;;;;;9.82;2.40;;;20.50;43.50;;;;;;5073502;28;20028;-64
2022/05/14 02:25:55;;;;;;;9.98;2.58;;;20.50;43.20;;;;;;5066989;28;20489;-64
2022/05/14 02:28:21;;;;;;;10.63;2.70;;;20.60;43.50;;;;;;5092528;28;20039;-64
2022/05/14 02:30:46;;;;;;;12.45;2.55;;;20.50;43.30;;;;;;5080530;28;20040;-66
2022/05/14 02:33:12;;;;;;;10.15;2.72;;;20.40;42.80;;;;;;5081173;28;20142;-63
2022/05/14 02:35:39;;;;;;;5.85;2.13;;;20.40;43.50;;;;;;5083860;28;20039;-64
2022/05/14 02:38:05;;;;;;;9.55;2.70;;;20.30;43.20;;;;;;5084796;28;20039;-65
2022/05/14 02:40:31;;;;;;;10.00;2.65;;;20.20;43.10;;;;;;5084200;28;20051;-64
2022/05/14 02:42:57;;;;;;;8.27;2.50;;;20.00;43.50;;;;;;5091845;28;20058;-64
2022/05/14 02:45:23;;;;;;;4.40;2.10;;;20.10;43.40;;;;;;5091949;28;20143;-64
2022/05/14 02:47:49;;;;;;;5.68;2.22;;;20.10;43.20;;;;;;5090819;28;20028;-66
2022/05/14 02:50:15;;;;;;;7.00;2.30;;;20.00;43.30;;;;;;5088897;28;20026;-63
2022/05/14 02:52:41;;;;;;;11.82;2.42;;;20.10;43.80;;;;;;5091922;28;20028;-64
2022/05/14 02:55:08;;;;;;;7.97;2.42;;;20.20;43.90;;;;;;5091069;28;20271;-64
2022/05/14 02:57:35;;;;;;;7.65;2.40;;;20.10;43.60;;;;;;5072579;28;20050;-64
2022/05/14 03:00:02;;;;;;;9.32;2.53;;;20.10;43.50;;;;;;5091064;28;20099;-64
2022/05/14 03:02:28;;;;;;;6.85;2.42;;;20.10;43.80;;;;;;5065522;28;20503;-64
2022/05/14 03:04:54;;;;;;;11.55;2.60;;;20.20;43.80;;;;;;5090357;28;20024;-63
2022/05/14 03:07:19;;;;;;;12.65;2.38;;;20.00;43.40;;;;;;5090662;28;20111;-63
2022/05/14 03:09:45;;;;;;;8.90;2.65;;;20.00;43.70;;;;;;5073508;28;20107;-64
2022/05/14 03:12:14;;;;;;;10.02;2.90;;;20.00;43.70;;;;;;5081106;28;20059;-71
2022/05/14 03:14:40;;;;;;;7.30;2.08;;;20.10;43.50;;;;;;5091455;28;20016;-70
2022/05/14 03:17:06;;;;;;;13.07;2.25;;;20.00;43.80;;;;;;5088376;28;20104;-73
2022/05/14 03:19:32;;;;;;;6.57;2.10;;;20.10;46.10;;;;;;5084552;28;20088;-72
2022/05/14 03:21:59;;;;;;;8.70;2.53;;;20.60;48.00;;;;;;5085391;28;20044;-72
2022/05/14 03:24:25;;;;;;;9.50;2.30;;;21.20;47.80;;;;;;5073403;28;20020;-76
2022/05/14 03:27:12;;;;;;;9.13;2.38;;;21.70;47.30;;;;;;5077926;28;20599;-65
2022/05/14 03:29:39;;;;;;;38.50;3.70;;;22.10;47.70;;;;;;5078888;28;20035;-57
2022/05/14 03:32:05;;;;;;;13.15;2.40;;;22.50;46.40;;;;;;5081028;28;20059;-68
2022/05/14 03:34:32;;;;;;;15.63;2.72;;;22.80;45.90;;;;;;5065673;28;20023;-67
2022/05/14 03:36:58;;;;;;;11.05;2.20;;;23.10;45.20;;;;;;5086494;28;20035;-66
2022/05/14 03:39:24;;;;;;;10.48;2.53;;;23.30;44.80;;;;;;5088306;28;20016;-66
2022/05/14 03:41:50;;;;;;;9.30;2.15;;;23.50;44.50;;;;;;5083193;28;20543;-61
2022/05/14 03:44:16;;;;;;;9.18;2.13;;;23.60;44.00;;;;;;5061401;28;20065;-67
2022/05/14 03:46:42;;;;;;;12.35;2.25;;;23.80;43.80;;;;;;5082669;28;20067;-64
2022/05/14 03:49:09;;;;;;;11.57;2.30;;;23.90;43.90;;;;;;5080028;28;20022;-67
2022/05/14 03:51:35;;;;;;;6.22;2.20;;;24.00;43.90;;;;;;5082411;28;20607;-67
2022/05/14 03:54:02;;;;;;;5.88;2.17;;;24.10;43.70;;;;;;5080926;28;20117;-66
2022/05/14 03:56:28;;;;;;;7.13;2.40;;;24.20;43.50;;;;;;5079318;28;20100;-67
2022/05/14 03:58:53;;;;;;;13.07;2.03;;;24.30;44.10;;;;;;5063014;28;20017;-66
2022/05/14 04:01:19;;;;;;;8.73;2.15;;;24.30;43.20;;;;;;5081996;28;20024;-66
2022/05/14 04:03:45;;;;;;;10.55;2.85;;;24.40;43.20;;;;;;5080193;28;20095;-66
2022/05/14 04:06:11;;;;;;;8.88;2.13;;;24.40;42.70;;;;;;5079031;28;20023;-66
2022/05/14 04:08:37;;;;;;;5.22;1.98;;;24.50;43.10;;;;;;5085794;28;20012;-66
2022/05/14 04:11:04;;;;;;;10.20;2.10;;;24.50;42.90;;;;;;5081672;28;20090;-67
2022/05/14 04:13:29;;;;;;;6.30;2.05;;;24.50;43.10;;;;;;5082356;28;20026;-67
2022/05/14 04:15:55;;;;;;;5.32;2.00;;;24.60;43.10;;;;;;5077967;28;20407;-68
2022/05/14 04:18:24;;;;;;;4.55;2.08;;;24.60;43.20;;;;;;5078544;28;20025;-67
2022/05/14 04:20:58;;;;;;;12.52;2.08;;;24.60;43.30;;;;;;5081302;28;20060;-61
2022/05/14 04:23:43;;;;;;;8.38;2.20;;;24.60;43.20;;;;;;5082566;28;20020;-67
2022/05/14 04:26:09;;;;;;;6.13;2.08;;;24.60;43.00;;;;;;5081429;28;20040;-67
2022/05/14 04:28:35;;;;;;;7.95;2.30;;;24.70;43.10;;;;;;5058858;28;20035;-67
2022/05/14 04:31:00;;;;;;;6.15;2.22;;;24.60;43.00;;;;;;5079898;28;20513;-63
2022/05/14 04:33:27;;;;;;;6.97;1.88;;;24.70;43.20;;;;;;5081387;28;20381;-67
2022/05/14 04:35:52;;;;;;;3.90;1.58;;;24.70;42.90;;;;;;5077154;28;20048;-62
2022/05/14 04:38:18;;;;;;;6.82;2.10;;;24.70;42.80;;;;;;5079055;28;20020;-67
2022/05/14 04:40:44;;;;;;;3.75;1.58;;;24.70;42.90;;;;;;5078959;28;20044;-68
2022/05/14 04:43:12;;;;;;;6.05;2.28;;;24.70;43.00;;;;;;5062852;28;20086;-67
2022/05/14 04:45:38;;;;;;;8.15;2.40;;;24.80;42.60;;;;;;5079639;28;20071;-67
2022/05/14 04:48:05;;;;;;;6.72;1.83;;;24.80;42.80;;;;;;5078561;28;20024;-66
2022/05/14 04:50:31;;;;;;;5.70;2.10;;;24.80;42.50;;;;;;5080634;28;20366;-66
2022/05/14 04:52:57;;;;;;;3.50;2.05;;;24.80;42.40;;;;;;5078221;28;20020;-65
2022/05/14 04:55:23;;;;;;;4.05;1.60;;;24.80;42.70;;;;;;5080100;28;20027;-67
2022/05/14 04:57:49;;;;;;;8.15;2.03;;;24.80;42.50;;;;;;5079808;28;20028;-67
2022/05/14 05:00:16;;;;;;;5.90;2.03;;;24.80;42.70;;;;;;5058533;28;20021;-62
2022/05/14 05:05:29;;;;;;;5.97;1.75;;;24.80;42.80;;;;;;5079599;28;20031;-64
2022/05/14 05:07:55;;;;;;;6.03;1.75;;;24.80;42.70;;;;;;5076225;28;20465;-62
2022/05/14 05:10:21;;;;;;;7.50;1.80;;;24.80;43.10;;;;;;5077347;28;20024;-67
2022/05/14 05:12:47;;;;;;;4.93;2.00;;;24.80;42.80;;;;;;5082904;28;20028;-67
2022/05/14 05:15:12;;;;;;;6.63;1.92;;;24.90;42.70;;;;;;5060003;28;20481;-65
2022/05/14 05:17:38;;;;;;;4.45;1.80;;;24.90;43.00;;;;;;5078498;28;20538;-66
2022/05/14 05:20:05;;;;;;;6.93;1.95;;;24.90;42.80;;;;;;5078386;28;20419;-65
2022/05/14 05:22:31;;;;;;;5.07;1.75;;;24.90;42.80;;;;;;5082627;28;20038;-67
2022/05/14 05:24:57;;;;;;;4.03;1.80;;;24.90;42.90;;;;;;5079108;28;20020;-64
2022/05/14 05:27:23;;;;;;;4.68;1.88;;;24.90;42.80;;;;;;5079392;28;20032;-65
2022/05/14 05:29:49;;;;;;;8.45;1.90;;;24.90;42.60;;;;;;5079892;28;20029;-65
2022/05/14 05:32:15;;;;;;;5.03;1.80;;;24.90;42.70;;;;;;5077477;28;20033;-67
2022/05/14 05:34:41;;;;;;;3.33;1.58;;;25.00;42.80;;;;;;5079028;28;20016;-66
2022/05/14 05:37:06;;;;;;;4.00;1.92;;;25.00;42.50;;;;;;5078463;28;20042;-67
2022/05/14 05:39:32;;;;;;;8.20;1.75;;;25.00;42.70;;;;;;5079344;28;20020;-66
2022/05/14 05:41:58;;;;;;;4.82;1.50;;;25.00;42.60;;;;;;5078530;28;20051;-64
2022/05/14 05:44:25;;;;;;;6.78;1.83;;;25.00;42.70;;;;;;5080492;28;20020;-67
2022/05/14 05:46:52;;;;;;;6.63;2.00;;;25.00;42.70;;;;;;5066905;28;20467;-62
2022/05/14 05:49:17;;;;;;;4.75;1.73;;;25.00;42.60;;;;;;5081460;28;20091;-67
2022/05/14 05:51:43;;;;;;;3.50;1.60;;;25.00;42.70;;;;;;5066145;28;20103;-67
2022/05/14 05:56:57;;;;;;;6.43;1.80;;;25.10;42.40;;;;;;5084593;28;20420;-61
2022/05/14 05:59:24;;;;;;;7.95;2.17;;;25.10;41.90;;;;;;5079523;28;20075;-67
2022/05/14 06:01:52;;;;;;;5.22;1.70;;;25.10;42.20;;;;;;5064845;28;20019;-68
2022/05/14 06:04:18;;;;;;;4.97;1.73;;;25.10;42.40;;;;;;5081175;28;20056;-67
2022/05/14 06:06:44;;;;;;;9.70;2.13;;;25.10;42.20;;;;;;5090579;28;20131;-67
2022/05/14 06:09:13;;;;;;;4.55;1.80;;;25.10;42.10;;;;;;5088655;28;20107;-68
2022/05/14 06:11:41;;;;;;;4.45;1.63;;;25.10;42.50;;;;;;5082460;28;20027;-68
2022/05/14 06:14:07;;;;;;;4.28;1.58;;;25.10;42.50;;;;;;5072480;28;20032;-68
2022/05/14 06:16:33;;;;;;;5.93;1.70;;;25.20;42.60;;;;;;5091846;28;20048;-68
2022/05/14 06:18:59;;;;;;;8.55;1.52;;;25.20;42.50;;;;;;5090310;28;20068;-65
2022/05/14 06:21:25;;;;;;;3.35;1.77;;;25.20;42.50;;;;;;5079838;28;20385;-67
2022/05/14 06:23:51;;;;;;;6.20;1.75;;;25.20;42.20;;;;;;5070565;28;20115;-66
2022/05/14 06:26:17;;;;;;;4.15;1.98;;;25.30;42.50;;;;;;5088767;28;20463;-68
2022/05/14 06:28:43;;;;;;;7.60;1.90;;;25.30;42.40;;;;;;5091205;28;20540;-68
2022/05/14 06:31:08;;;;;;;6.78;1.90;;;25.30;42.10;;;;;;5090185;28;20100;-68
2022/05/14 06:33:34;;;;;;;6.25;1.80;;;25.30;42.10;;;;;;5063703;28;20828;-67
2022/05/14 06:35:59;;;;;;;6.95;1.80;;;25.30;42.50;;;;;;5090612;28;20484;-63
2022/05/14 06:38:26;;;;;;;6.75;1.88;;;25.30;42.20;;;;;;5087215;28;20027;-66
2022/05/14 06:40:53;;;;;;;7.00;1.80;;;25.30;42.30;;;;;;5091252;28;20040;-65
2022/05/14 06:43:19;;;;;;;8.02;1.73;;;25.40;42.20;;;;;;5090012;28;20048;-65
2022/05/14 06:45:45;;;;;;;6.38;2.22;;;25.50;42.20;;;;;;5083217;28;20044;-66
2022/05/14 06:48:12;;;;;;;6.68;2.00;;;25.60;41.80;;;;;;5084997;28;20023;-66
2022/05/14 06:50:43;;;;;;;6.93;1.90;;;25.80;41.80;;;;;;5090074;28;20074;-67
2022/05/14 06:53:10;;;;;;;7.50;1.88;;;26.20;41.40;;;;;;5071715;28;20332;-67
2022/05/14 06:55:38;;;;;;;4.15;2.00;;;26.70;40.80;;;;;;5089591;28;20032;-66
2022/05/14 06:58:07;;;;;;;4.95;2.10;;;27.20;40.00;;;;;;5071183;28;20484;-65
2022/05/14 07:00:33;;;;;;;7.43;2.20;;;27.60;39.20;;;;;;5072603;28;20036;-64
2022/05/14 07:08:38;;;;;;;4.70;1.70;;;28.70;37.20;;;;;;5080874;28;20039;-66
2022/05/14 07:11:04;;;;;;;6.93;2.10;;;29.00;36.80;;;;;;5089510;28;20028;-64
2022/05/14 07:13:29;;;;;;;5.38;2.17;;;29.10;36.30;;;;;;5090984;28;20024;-67
2022/05/14 07:15:55;;;;;;;5.22;2.15;;;29.30;35.90;;;;;;5090369;28;20177;-66
2022/05/14 07:18:21;;;;;;;12.55;2.38;;;29.50;35.60;;;;;;5088783;28;20019;-66
2022/05/14 07:20:47;;;;;;;3.95;1.73;;;29.60;35.30;;;;;;5069848;28;20051;-68
2022/05/14 07:23:13;;;;;;;4.78;1.92;;;29.70;35.20;;;;;;5070695;28;20095;-70
2022/05/14 07:25:39;;;;;;;10.65;2.30;;;29.80;35.00;;;;;;5090161;28;20067;-68
2022/05/14 07:28:05;;;;;;;4.93;1.90;;;29.90;34.80;;;;;;5089412;28;20056;-67
2022/05/14 07:30:32;;;;;;;6.30;2.10;;;29.90;34.60;;;;;;5090101;28;20491;-68
2022/05/14 07:32:58;;;;;;;14.13;2.22;;;30.00;34.40;;;;;;5089587;28;20031;-61
2022/05/14 07:35:23;;;;;;;6.00;2.00;;;30.00;34.30;;;;;;5088029;28;20357;-67
2022/05/14 07:37:53;;;;;;;11.55;2.30;;;30.10;34.40;;;;;;5074394;28;20062;-66
2022/05/14 07:40:22;;;;;;;6.85;2.40;;;30.00;34.40;;;;;;5083401;28;20029;-68
2022/05/14 07:43:00;;;;;;;7.78;2.35;;;30.10;34.50;;;;;;5068348;28;20072;-67
2022/05/14 07:45:32;;;;;;;8.50;2.40;;;30.10;34.40;;;;;;5087951;28;20055;-65
2022/05/14 07:48:00;;;;;;;14.30;2.35;;;30.00;34.40;;;;;;5085042;28;20485;-68
2022/05/14 07:50:26;;;;;;;9.70;2.47;;;29.90;34.50;;;;;;5089919;28;20020;-68
2022/05/14 07:52:52;;;;;;;5.32;2.20;;;29.80;34.60;;;;;;5058740;28;20450;-67
2022/05/14 07:55:18;;;;;;;7.53;2.13;;;29.70;34.60;;;;;;5068441;28;20066;-71
2022/05/14 07:57:44;;;;;;;12.07;2.42;;;29.70;35.00;;;;;;5089873;28;20047;-72
2022/05/14 08:00:11;;;;;;;7.05;2.30;;;29.60;35.80;;;;;;5070858;28;20028;-72
2022/05/14 08:02:37;;;;;;;6.63;2.38;;;29.60;35.20;;;;;;5071615;28;20171;-69
2022/05/14 08:05:05;;;;;;;7.63;2.17;;;29.50;35.20;;;;;;5071140;28;20024;-68
2022/05/14 08:07:31;;;;;;;7.50;2.17;;;29.40;35.40;;;;;;5073805;28;20019;-64
2022/05/14 08:09:58;;;;;;;9.07;2.10;;;29.40;35.80;;;;;;5089670;28;20032;-63
2022/05/14 08:12:24;;;;;;;7.97;1.80;;;29.60;35.90;;;;;;5088586;28;20058;-64
2022/05/14 08:14:50;;;;;;;29.20;3.72;;;29.60;35.70;;;;;;5089363;28;20413;-59
2022/05/14 08:17:16;;;;;;;6.47;2.10;;;29.50;35.70;;;;;;5086010;28;20044;-60
2022/05/14 08:19:41;;;;;;;6.90;2.15;;;29.40;35.60;;;;;;5089412;28;20021;-60
2022/05/14 08:24:52;;;;;;;6.93;2.03;;;29.00;36.10;;;;;;5084291;28;20086;-56
2022/05/14 08:27:18;;;;;;;9.95;2.17;;;28.80;36.60;;;;;;5053844;28;20036;-56
2022/05/14 08:29:47;;;;;;;5.95;2.15;;;28.60;36.90;;;;;;5086032;28;20073;-57
2022/05/14 08:32:18;;;;;;;6.15;2.00;;;28.40;37.10;;;;;;5084030;28;20046;-59
2022/05/14 08:34:44;;;;;;;7.97;2.10;;;28.30;37.30;;;;;;5074232;28;20020;-62
2022/05/14 08:37:11;;;;;;;5.63;2.30;;;28.20;37.50;;;;;;5066012;28;20044;-60
2022/05/14 08:39:37;;;;;;;4.40;2.05;;;28.10;37.70;;;;;;5084673;28;20411;-60
2022/05/14 08:42:07;;;;;;;4.00;1.83;;;28.10;37.80;;;;;;5088737;28;20175;-52
2022/05/14 08:44:34;;;;;;;5.45;2.20;;;28.00;38.00;;;;;;5084604;28;20354;-59
2022/05/14 08:47:06;;;;;;;5.38;2.08;;;27.90;38.20;;;;;;5088543;28;20507;-61
2022/05/14 08:49:42;;;;;;;6.22;2.15;;;27.80;38.20;;;;;;5067583;28;20453;-60
2022/05/14 08:52:35;;;;;;;6.78;2.05;;;27.80;38.30;;;;;;5082734;28;20024;-59
2022/05/14 08:55:05;;;;;;;6.10;2.28;;;27.70;38.50;;;;;;5057965;28;20036;-59
2022/05/14 08:57:37;;;;;;;8.65;2.30;;;27.70;38.70;;;;;;5083104;28;20035;-61
2022/05/14 09:00:05;;;;;;;6.30;1.98;;;27.60;38.70;;;;;;5086852;28;20016;-60
2022/05/14 09:02:47;;;;;;;7.30;1.88;;;27.50;38.70;;;;;;5080396;28;20021;-56
2022/05/14 09:05:19;;;;;;;6.15;2.03;;;27.50;38.90;;;;;;5060342;28;20453;-60
2022/05/14 09:07:46;;;;;;;7.53;2.70;;;27.50;38.90;;;;;;5083245;28;20107;-60
2022/05/14 09:10:39;;;;;;;7.05;2.20;;;27.40;38.90;;;;;;5075704;28;20048;-63
2022/05/14 09:13:21;;;;;;;11.02;2.30;;;27.40;38.90;;;;;;5086601;28;20303;-63
2022/05/14 09:15:57;;;;;;;7.60;1.85;;;27.40;39.00;;;;;;5077732;28;20093;-69
2022/05/14 09:18:28;;;;;;;12.82;2.53;;;27.30;39.00;;;;;;5056390;28;20043;-66
2022/05/14 09:21:01;;;;;;;13.43;2.80;;;27.30;39.00;;;;;;5091340;28;20020;-53
2022/05/14 09:23:51;;;;;;;9.77;2.10;;;27.30;38.70;;;;;;5087453;28;20507;-61
2022/05/14 09:26:29;;;;;;;10.10;1.90;;;27.30;38.90;;;;;;5082260;28;20028;-61
2022/05/14 09:28:58;;;;;;;10.27;2.22;;;27.30;39.30;;;;;;5078728;28;20020;-60
2022/05/14 09:31:33;;;;;;;13.93;2.45;;;27.30;38.70;;;;;;5081517;28;20055;-60
2022/05/14 09:34:04;;;;;;;9.55;2.08;;;27.30;38.40;;;;;;5071116;28;20086;-59
2022/05/14 09:36:30;;;;;;;8.80;1.95;;;27.20;38.30;;;;;;5090371;28;20016;-62
2022/05/14 09:39:18;;;;;;;8.02;2.40;;;27.20;38.10;;;;;;5072333;28;20048;-62
2022/05/14 09:41:56;;;;;;;14.32;2.05;;;27.10;38.30;;;;;;5061760;28;20569;-63
2022/05/14 09:44:25;;;;;;;9.55;1.85;;;27.10;38.40;;;;;;5081280;28;20029;-59
2022/05/14 09:46:52;;;;;;;9.18;2.05;;;27.10;38.40;;;;;;5084828;28;20031;-63
2022/05/14 09:49:27;;;;;;;8.50;2.05;;;27.10;38.70;;;;;;5067603;28;20032;-62
2022/05/14 09:51:53;;;;;;;14.88;2.40;;;27.00;38.60;;;;;;5071122;28;20178;-63
2022/05/14 09:54:24;;;;;;;9.75;2.20;;;27.00;38.70;;;;;;5088638;28;20107;-62
2022/05/14 09:57:01;;;;;;;10.27;2.33;;;27.00;38.70;;;;;;5060454;28;20055;-62
2022/05/14 09:59:27;;;;;;;11.70;2.17;;;27.00;38.70;;;;;;5068428;28;20108;-64
2022/05/14 10:01:59;;;;;;;11.05;2.60;;;26.90;38.80;;;;;;5088069;28;20158;-62
2022/05/14 10:04:51;;;;;;;10.60;2.58;;;26.90;38.70;;;;;;5077642;28;20012;-61
2022/05/14 10:07:25;;;;;;;6.63;2.22;;;26.90;38.50;;;;;;5079902;28;20048;-62
2022/05/14 10:09:54;;;;;;;11.88;2.85;;;26.90;38.40;;;;;;5090035;28;20108;-60
2022/05/14 10:12:33;;;;;;;6.18;2.10;;;26.90;38.50;;;;;;5065061;28;20032;-60
2022/05/14 10:15:26;;;;;;;12.30;2.22;;;26.90;38.90;;;;;;5054425;28;20032;-67
2022/05/14 10:18:10;;;;;;;11.13;2.10;;;26.90;39.40;;;;;;5085800;28;20059;-67
2022/05/14 10:20:46;;;;;;;9.98;2.35;;;26.90;39.50;;;;;;5066079;28;20032;-67
2022/05/14 10:26:46;;;;;;;14.60;2.30;;;26.90;39.60;;;;;;5079994;28;20097;-64
2022/05/14 10:29:36;;;;;;;12.98;2.53;;;26.90;39.70;;;;;;5090249;28;20020;-62
2022/05/14 10:32:06;;;;;;;13.77;2.45;;;26.90;39.70;;;;;;5071939;28;20020;-70
2022/05/14 10:34:35;;;;;;;14.95;2.97;;;26.90;39.50;;;;;;5089875;28;20511;-66
2022/05/14 10:37:10;;;;;;;10.90;2.50;;;26.90;39.60;;;;;;5084259;28;20028;-67
2022/05/14 10:39:52;;;;;;;14.50;2.53;;;26.90;39.50;;;;;;5084921;28;20074;-66
2022/05/14 10:42:25;;;;;;;14.25;2.20;;;26.90;39.30;;;;;;5069935;28;20036;-66
2022/05/14 10:45:01;;;;;;;20.02;3.20;;;26.90;39.50;;;;;;5089471;28;20510;-59
2022/05/14 10:47:27;;;;;;;13.57;2.60;;;26.90;39.50;;;;;;5080792;28;20085;-66
2022/05/14 10:50:08;;;;;;;16.65;2.38;;;26.90;40.10;;;;;;5090462;28;20028;-69
2022/05/14 10:52:39;;;;;;;11.43;2.67;;;26.90;39.20;;;;;;5084541;28;20112;-69
2022/05/14 10:55:17;;;;;;;11.40;2.42;;;26.90;39.00;;;;;;5071921;28;20068;-70
2022/05/14 10:57:47;;;;;;;10.57;2.42;;;26.90;39.20;;;;;;5070409;28;20039;-69
2022/05/14 11:00:19;;;;;;;19.20;3.08;;;26.90;39.30;;;;;;5069316;28;20161;-67
2022/05/14 11:02:59;;;;;;;18.40;2.17;;;26.90;39.30;;;;;;5085552;28;20068;-69
2022/05/14 11:05:53;;;;;;;14.93;2.60;;;26.90;39.30;;;;;;5071075;28;20108;-69
2022/05/14 11:08:33;;;;;;;;;;;26.90;39.60;;;;;;5074384;28;20033;-67
2022/05/14 11:11:14;;;;;;;10.68;2.85;;;27.00;39.60;;;;;;5075045;28;19996;-70
2022/05/14 11:13:40;;;;;;;11.65;2.53;;;27.00;39.30;;;;;;5081037;28;20024;-69
2022/05/14 11:16:13;;;;;;;12.27;2.47;;;27.00;39.30;;;;;;5088919;28;20035;-68
2022/05/14 11:18:49;;;;;;;11.87;2.30;;;26.90;39.30;;;;;;5088293;28;20032;-67
2022/05/14 11:21:15;;;;;;;6.95;1.95;;;27.00;39.40;;;;;;5071141;28;20027;-70
2022/05/14 11:23:58;;;;;;;18.45;2.45;;;27.00;39.40;;;;;;5085630;28;20032;-68
2022/05/14 11:26:25;;;;;;;17.60;2.45;;;27.00;39.40;;;;;;5086092;28;20033;-67
2022/05/14 11:28:58;;;;;;;11.40;2.60;;;27.00;39.30;;;;;;5066625;28;20039;-69
2022/05/14 11:31:29;;;;;;;9.13;2.30;;;27.00;39.40;;;;;;5080021;28;20039;-67
2022/05/14 11:33:58;;;;;;;11.52;2.70;;;27.00;39.40;;;;;;5071070;28;20180;-65
2022/05/14 11:36:28;;;;;;;12.27;2.35;;;27.10;39.40;;;;;;5079858;28;20025;-63
2022/05/14 11:39:09;;;;;;;6.15;2.08;;;27.10;39.10;;;;;;5087189;28;20043;-59
2022/05/14 11:41:37;;;;;;;10.38;2.33;;;27.20;39.10;;;;;;5067844;28;20038;-62
2022/05/14 11:44:06;;;;;;;17.63;2.25;;;27.20;39.30;;;;;;5068623;28;20031;-59
2022/05/14 11:46:48;;;;;;;20.40;3.03;;;27.20;39.10;;;;;;5087330;28;20165;-63
2022/05/14 11:49:33;;;;;;;25.63;2.70;;;27.30;39.30;;;;;;5080486;28;20020;-62
2022/05/14 11:52:37;;;;;;;9.25;2.40;;;27.30;39.20;;;;;;5068943;28;20036;-59
2022/05/14 11:55:03;;;;;;;9.43;2.13;;;27.30;39.10;;;;;;5047748;28;20079;-62
2022/05/14 11:57:35;;;;;;;9.82;2.47;;;27.30;39.00;;;;;;5083687;28;20053;-65
2022/05/14 12:00:15;;;;;;;9.90;2.38;;;27.30;38.80;;;;;;5068452;28;20503;-61
2022/05/14 12:02:56;;;;;;;13.20;2.10;;;27.30;38.90;;;;;;5083705;28;20024;-64
2022/05/14 12:05:29;;;;;;;6.88;1.95;;;27.40;39.20;;;;;;5067251;28;20024;-59
2022/05/14 12:08:15;;;;;;;13.88;2.70;;;27.30;38.60;;;;;;5068146;28;20085;-64
2022/05/14 12:10:47;;;;;;;9.27;2.40;;;27.30;38.70;;;;;;5062217;28;20237;-62
2022/05/14 12:13:40;;;;;;;9.98;2.63;;;27.30;38.90;;;;;;5085580;28;20095;-63
2022/05/14 12:16:07;;;;;;;8.07;2.17;;;27.30;38.80;;;;;;5084764;28;20034;-62
2022/05/14 12:18:34;;;;;;;8.30;2.80;;;27.30;38.90;;;;;;5082394;28;20032;-63
2022/05/14 12:21:06;;;;;;;13.20;2.50;;;27.30;38.90;;;;;;5057057;28;20039;-60
2022/05/14 12:23:47;;;;;;;7.53;2.67;;;27.30;38.80;;;;;;5087183;28;20152;-63
2022/05/14 12:26:21;;;;;;;9.52;3.05;;;27.30;38.50;;;;;;5058955;28;20039;-64
2022/05/14 12:28:47;;;;;;;7.38;3.05;;;27.40;38.20;;;;;;5074864;28;20488;-66
2022/05/14 12:34:00;;;;;;;8.30;2.88;;;27.50;38.00;;;;;;5070563;28;20508;-67
2022/05/14 12:36:28;;;;;;;25.20;3.55;;;27.60;38.20;;;;;;5061883;28;20032;-48
2022/05/14 12:38:56;;;;;;;45.95;4.68;;;27.60;41.90;;;;;;5061384;28;20512;-50
2022/05/14 12:41:32;;;;;;;10.85;3.72;;;28.10;38.40;;;;;;5084849;28;20058;-58
2022/05/14 12:44:11;;;;;;;15.30;3.30;;;28.50;37.10;;;;;;5081559;28;20512;-49
2022/05/14 12:46:43;;;;;;;14.68;3.10;;;28.60;37.10;;;;;;5085825;28;20070;-51
2022/05/14 12:49:22;;;;;;;6.53;2.97;;;28.70;36.90;;;;;;5086813;28;20035;-53
2022/05/14 12:52:04;;;;;;;13.77;2.78;;;28.70;36.90;;;;;;5061828;28;20040;-51
2022/05/14 12:54:33;;;;;;;12.32;3.30;;;28.70;36.60;;;;;;5086669;28;20020;-52
2022/05/14 12:57:02;;;;;;;11.23;2.97;;;28.70;36.50;;;;;;5073015;28;20020;-49
2022/05/14 12:59:28;;;;;;;10.35;2.85;;;28.80;36.60;;;;;;5091132;28;20024;-48
2022/05/14 13:02:02;;;;;;;19.25;3.70;;;28.70;36.40;;;;;;5068110;28;20118;-52
2022/05/14 13:05:04;;;;;;;11.13;3.95;;;28.80;36.60;;;;;;5081137;28;20028;-51
2022/05/14 13:07:34;;;;;;;9.65;3.72;;;28.80;36.20;;;;;;5053418;28;20036;-49
2022/05/14 13:10:01;;;;;;;15.52;3.63;;;28.80;36.50;;;;;;5073405;28;20108;-52
2022/05/14 13:12:31;;;;;;;13.65;3.67;;;28.80;36.20;;;;;;5072719;28;20059;-60
2022/05/14 13:15:00;;;;;;;11.02;3.45;;;28.80;36.30;;;;;;5073551;28;20063;-51
2022/05/14 13:18:02;;;;;;;10.68;3.47;;;28.80;36.60;;;;;;5090665;28;20028;-58
2022/05/14 13:20:28;;;;;;;9.30;3.47;;;28.80;36.60;;;;;;5085686;28;20032;-53
2022/05/14 13:23:13;;;;;;;9.52;3.92;;;28.80;36.50;;;;;;5090694;28;20464;-52